createdAt,value
2022-12-13T00:01:27.556Z,-5.90
2022-12-13T00:03:56.225Z,-5.90
2022-12-13T00:06:26.396Z,-6.00
2022-12-13T00:08:54.640Z,-5.90
2022-12-13T00:11:22.474Z,-6.00
2022-12-13T00:13:50.606Z,-5.90
2022-12-13T00:16:22.482Z,-5.80
2022-12-13T00:18:51.587Z,-6.00
2022-12-13T00:21:21.324Z,-6.00
2022-12-13T00:23:51.036Z,-6.00
2022-12-13T00:26:20.974Z,-6.00
2022-12-13T00:28:51.040Z,-6.00
2022-12-13T00:31:54.918Z,-6.00
2022-12-13T00:34:07.416Z,-6.10
2022-12-13T00:36:35.269Z,-6.10
2022-12-13T00:39:04.874Z,-6.30
2022-12-13T00:41:34.798Z,-6.20
2022-12-13T00:44:03.166Z,-6.30
2022-12-13T00:46:31.247Z,-6.30
2022-12-13T00:49:01.418Z,-6.20
2022-12-13T00:51:31.168Z,-6.30
2022-12-13T00:53:59.790Z,-6.20
2022-12-13T00:56:30.989Z,-6.30
2022-12-13T00:58:59.700Z,-6.30
2022-12-13T01:01:29.786Z,-6.30
2022-12-13T01:03:59.508Z,-6.30
2022-12-13T01:06:30.242Z,-6.30
2022-12-13T01:08:58.044Z,-6.30
2022-12-13T01:11:26.412Z,-6.20
2022-12-13T01:13:55.540Z,-6.40
2022-12-13T01:16:23.404Z,-6.30
2022-12-13T01:18:51.240Z,-6.40
2022-12-13T01:21:20.916Z,-6.30
2022-12-13T01:23:50.324Z,-6.30
2022-12-13T01:26:19.802Z,-6.30
2022-12-13T01:28:47.858Z,-6.40
2022-12-13T01:31:19.335Z,-6.40
2022-12-13T01:33:47.512Z,-6.30
2022-12-13T01:36:17.512Z,-6.30
2022-12-13T01:38:45.362Z,-6.30
2022-12-13T01:41:17.683Z,-6.40
2022-12-13T01:43:55.430Z,-6.40
2022-12-13T01:46:24.618Z,-6.50
2022-12-13T01:48:57.959Z,-6.50
2022-12-13T01:51:30.273Z,-6.40
2022-12-13T01:54:02.359Z,-6.30
2022-12-13T01:56:36.258Z,-6.40
2022-12-13T01:59:05.537Z,-6.50
2022-12-13T02:01:35.187Z,-6.50
2022-12-13T02:04:03.073Z,-6.30
2022-12-13T02:06:35.684Z,-6.30
2022-12-13T02:09:05.714Z,-6.30
2022-12-13T02:11:35.049Z,-6.20
2022-12-13T02:14:05.333Z,-5.60
2022-12-13T02:16:46.333Z,-6.20
2022-12-13T02:19:50.684Z,-6.10
2022-12-13T02:22:45.628Z,-6.00
2022-12-13T02:25:29.617Z,-5.90
2022-12-13T02:28:30.150Z,-5.90
2022-12-13T02:31:08.379Z,-6.00
2022-12-13T02:33:51.440Z,-5.90
2022-12-13T02:36:28.338Z,-5.90
2022-12-13T02:39:11.405Z,-5.90
2022-12-13T02:41:44.817Z,-6.10
2022-12-13T02:44:22.974Z,-5.90
2022-12-13T02:46:56.773Z,-6.00
2022-12-13T02:49:26.704Z,-6.00
2022-12-13T02:51:57.575Z,-6.00
2022-12-13T02:54:25.481Z,-6.10
2022-12-13T02:56:56.866Z,-6.20
2022-12-13T02:59:28.392Z,-6.20
2022-12-13T03:02:09.834Z,-6.40
2022-12-13T03:05:07.340Z,-6.30
2022-12-13T03:07:44.429Z,-6.20
2022-12-13T03:10:18.690Z,-6.10
2022-12-13T03:13:12.789Z,-6.30
2022-12-13T03:15:45.850Z,-6.20
2022-12-13T03:18:18.850Z,-6.20
2022-12-13T03:20:48.519Z,-6.20
2022-12-13T03:23:17.176Z,-6.20
2022-12-13T03:25:46.767Z,-6.20
2022-12-13T03:28:15.041Z,-6.30
2022-12-13T03:30:42.823Z,-6.30
2022-12-13T03:33:10.611Z,-6.20
2022-12-13T03:35:44.934Z,-6.20
2022-12-13T03:38:22.359Z,-6.20
2022-12-13T03:40:54.320Z,-6.30
2022-12-13T03:43:23.211Z,-6.40
2022-12-13T03:45:51.739Z,-6.50
2022-12-13T03:48:22.033Z,-6.50
2022-12-13T03:50:53.269Z,-6.50
2022-12-13T03:53:23.368Z,-6.40
2022-12-13T03:56:01.523Z,-6.50
2022-12-13T03:58:36.370Z,-6.50
2022-12-13T04:01:07.171Z,-6.50
2022-12-13T04:03:35.104Z,-6.50
2022-12-13T04:06:04.932Z,-6.60
2022-12-13T04:08:33.108Z,-6.50
2022-12-13T04:11:20.935Z,-6.60
2022-12-13T04:13:47.887Z,-6.60
2022-12-13T04:16:15.733Z,-6.70
2022-12-13T04:18:43.585Z,-6.70
2022-12-13T04:21:12.783Z,-6.70
2022-12-13T04:23:40.542Z,-6.70
2022-12-13T04:26:08.407Z,-6.90
2022-12-13T04:28:36.182Z,-6.80
2022-12-13T04:31:04.087Z,-6.80
2022-12-13T04:33:32.626Z,-6.80
2022-12-13T04:36:00.510Z,-6.80
2022-12-13T04:38:29.661Z,-6.70
2022-12-13T04:41:06.353Z,-6.90
2022-12-13T04:43:34.085Z,-6.90
2022-12-13T04:46:01.925Z,-7.00
2022-12-13T04:48:30.997Z,-6.90
2022-12-13T04:51:01.314Z,-6.90
2022-12-13T04:53:30.978Z,-6.90
2022-12-13T04:55:58.933Z,-6.90
2022-12-13T04:58:26.751Z,-6.90
2022-12-13T05:00:54.597Z,-6.90
2022-12-13T05:03:22.943Z,-7.10
2022-12-13T05:05:51.144Z,-7.20
2022-12-13T05:08:19.014Z,-7.20
2022-12-13T05:10:48.155Z,-7.20
2022-12-13T05:13:16.089Z,-7.20
2022-12-13T05:15:43.970Z,-7.10
2022-12-13T05:18:11.776Z,-7.00
2022-12-13T05:20:40.361Z,-7.00
2022-12-13T05:23:08.315Z,-7.10
2022-12-13T05:25:36.810Z,-7.20
2022-12-13T05:28:08.914Z,-7.20
2022-12-13T05:30:55.461Z,-7.30
2022-12-13T05:33:23.683Z,-7.30
2022-12-13T05:35:55.078Z,-7.30
2022-12-13T05:38:27.123Z,-7.30
2022-12-13T05:40:54.934Z,-7.20
2022-12-13T05:43:24.144Z,-7.10
2022-12-13T05:46:10.403Z,-7.10
2022-12-13T05:48:38.246Z,-7.20
2022-12-13T05:51:10.206Z,-7.20
2022-12-13T05:53:39.605Z,-7.10
2022-12-13T05:56:08.065Z,-7.00
2022-12-13T05:58:38.147Z,-7.00
2022-12-13T06:01:07.753Z,-7.00
2022-12-13T06:03:35.939Z,-7.00
2022-12-13T06:06:03.958Z,-7.10
2022-12-13T06:08:32.394Z,-7.20
2022-12-13T06:11:10.003Z,-7.20
2022-12-13T06:13:43.584Z,-7.30
2022-12-13T06:16:23.642Z,-7.40
2022-12-13T06:19:00.930Z,-7.30
2022-12-13T06:21:41.400Z,-7.20
2022-12-13T06:24:15.079Z,-7.10
2022-12-13T06:26:44.986Z,-7.20
2022-12-13T06:29:23.823Z,-7.10
2022-12-13T06:31:54.941Z,-7.20
2022-12-13T06:34:31.576Z,-7.30
2022-12-13T06:37:00.823Z,-7.30
2022-12-13T06:39:33.206Z,-7.50
2022-12-13T06:42:01.805Z,-7.40
2022-12-13T06:44:30.928Z,-7.50
2022-12-13T06:47:10.755Z,-7.50
2022-12-13T06:49:41.689Z,-7.40
2022-12-13T06:52:11.651Z,-7.50
2022-12-13T06:54:39.420Z,-7.50
2022-12-13T06:57:07.240Z,-7.60
2022-12-13T06:59:36.417Z,-7.60
2022-12-13T07:02:04.430Z,-7.60
2022-12-13T07:04:32.351Z,-7.60
2022-12-13T07:07:01.957Z,-7.70
2022-12-13T07:09:30.699Z,-7.60
2022-12-13T07:11:58.788Z,-7.70
2022-12-13T07:14:26.752Z,-7.80
2022-12-13T07:17:03.034Z,-7.80
2022-12-13T07:19:35.325Z,-7.50
2022-12-13T07:22:10.101Z,-7.60
2022-12-13T07:24:38.168Z,-7.70
2022-12-13T07:27:06.209Z,-7.80
2022-12-13T07:29:34.027Z,-8.00
2022-12-13T07:32:03.193Z,-8.00
2022-12-13T07:34:31.421Z,-7.80
2022-12-13T07:36:59.222Z,-7.60
2022-12-13T07:39:27.541Z,-7.80
2022-12-13T07:41:56.393Z,-7.90
2022-12-13T07:44:24.412Z,-7.80
2022-12-13T07:46:52.343Z,-7.90
2022-12-13T07:49:21.773Z,-7.90
2022-12-13T07:51:49.931Z,-7.80
2022-12-13T07:54:17.893Z,-7.80
2022-12-13T07:56:46.010Z,-7.80
2022-12-13T07:59:14.226Z,-7.80
2022-12-13T08:01:42.176Z,-7.70
2022-12-13T08:04:10.189Z,-7.60
2022-12-13T08:06:39.403Z,-7.50
2022-12-13T08:09:07.564Z,-7.60
2022-12-13T08:11:35.473Z,-7.70
2022-12-13T08:14:03.255Z,-7.60
2022-12-13T08:16:31.311Z,-7.60
2022-12-13T08:19:01.803Z,-7.70
2022-12-13T08:24:24.750Z,-7.60
2022-12-13T08:26:52.916Z,-7.60
2022-12-13T08:29:23.108Z,-7.40
2022-12-13T08:32:02.198Z,-7.40
2022-12-13T08:34:30.258Z,-7.50
2022-12-13T08:37:01.671Z,-7.40
2022-12-13T08:39:35.309Z,-7.30
2022-12-13T08:42:16.567Z,-7.20
2022-12-13T08:44:46.578Z,-7.20
2022-12-13T08:47:22.896Z,-7.10
2022-12-13T08:49:53.549Z,-7.10
2022-12-13T08:52:22.709Z,-7.00
2022-12-13T08:54:53.938Z,-6.80
2022-12-13T08:57:21.821Z,-6.80
2022-12-13T08:59:49.645Z,-6.70
2022-12-13T09:02:17.762Z,-6.60
2022-12-13T09:04:45.655Z,-6.50
2022-12-13T09:07:13.650Z,-6.50
2022-12-13T09:09:41.537Z,-6.60
2022-12-13T09:12:30.785Z,-6.50
2022-12-13T09:15:01.289Z,-6.50
2022-12-13T09:17:37.028Z,-6.60
2022-12-13T09:20:09.964Z,-6.30
2022-12-13T09:23:01.928Z,-6.30
2022-12-13T09:25:37.393Z,-6.10
2022-12-13T09:28:08.377Z,-6.00
2022-12-13T09:30:37.019Z,-6.20
2022-12-13T09:33:28.075Z,-6.20
2022-12-13T09:35:53.227Z,-6.00
2022-12-13T09:38:21.297Z,-6.10
2022-12-13T09:40:58.931Z,-6.00
2022-12-13T09:43:33.045Z,-5.90
2022-12-13T09:46:05.008Z,-5.70
2022-12-13T09:48:42.108Z,-5.70
2022-12-13T09:51:29.881Z,-5.90
2022-12-13T09:54:05.157Z,-5.70
2022-12-13T09:56:34.483Z,-5.80
2022-12-13T09:59:04.131Z,-5.80
2022-12-13T10:01:31.977Z,-5.70
2022-12-13T10:04:02.088Z,-5.70
2022-12-13T10:06:32.645Z,-5.60
2022-12-13T10:09:01.819Z,-5.60
2022-12-13T10:11:32.511Z,-5.40
2022-12-13T10:14:05.430Z,-5.40
2022-12-13T10:16:43.586Z,-5.50
2022-12-13T10:19:28.490Z,-5.40
2022-12-13T10:22:02.180Z,-5.30
2022-12-13T10:24:48.005Z,-5.30
2022-12-13T10:27:18.042Z,-5.30
2022-12-13T10:30:06.726Z,-5.10
2022-12-13T10:32:43.154Z,-5.00
2022-12-13T10:35:23.180Z,-5.10
2022-12-13T10:37:51.525Z,-5.20
2022-12-13T10:40:34.257Z,-5.20
2022-12-13T10:43:15.858Z,-4.90
2022-12-13T10:46:00.912Z,-4.90
2022-12-13T10:48:38.349Z,-5.00
2022-12-13T10:51:09.629Z,-5.00
2022-12-13T10:53:47.144Z,-5.00
2022-12-13T10:56:15.725Z,-4.80
2022-12-13T10:59:14.975Z,-4.70
2022-12-13T11:01:46.444Z,-4.90
2022-12-13T11:04:27.570Z,-4.90
2022-12-13T11:06:56.869Z,-4.70
2022-12-13T11:09:30.046Z,-4.60
2022-12-13T11:12:16.242Z,-4.70
2022-12-13T11:14:51.431Z,-4.80
2022-12-13T11:17:23.883Z,-4.70
2022-12-13T11:19:54.662Z,-4.60
2022-12-13T11:22:25.485Z,-4.50
2022-12-13T11:24:58.280Z,-4.50
2022-12-13T11:27:46.414Z,-4.60
2022-12-13T11:30:21.508Z,-4.30
2022-12-13T11:33:08.833Z,-4.30
2022-12-13T11:35:49.630Z,-4.30
2022-12-13T11:38:26.909Z,-4.20
2022-12-13T11:40:59.855Z,-4.10
2022-12-13T11:43:34.097Z,-4.20
2022-12-13T11:46:05.978Z,-4.00
2022-12-13T11:48:42.243Z,-4.10
2022-12-13T11:51:13.747Z,-4.00
2022-12-13T11:53:52.886Z,-4.10
2022-12-13T11:56:26.026Z,-4.00
2022-12-13T11:59:04.685Z,-4.20
2022-12-13T12:01:40.459Z,-4.00
2022-12-13T12:04:18.994Z,-4.00
2022-12-13T12:06:54.249Z,-4.20
2022-12-13T12:09:25.167Z,-4.20
2022-12-13T12:12:00.406Z,-4.00
2022-12-13T12:14:38.817Z,-4.20
2022-12-13T12:17:07.101Z,-4.00
2022-12-13T12:19:39.564Z,-4.00
2022-12-13T12:22:22.362Z,-4.10
2022-12-13T12:25:03.051Z,-4.00
2022-12-13T12:27:38.247Z,-3.90
2022-12-13T12:30:13.671Z,-3.80
2022-12-13T12:32:59.453Z,-4.00
2022-12-13T12:35:51.990Z,-3.90
2022-12-13T12:38:47.453Z,-4.10
2022-12-13T12:41:31.605Z,-4.00
2022-12-13T12:44:06.553Z,-4.00
2022-12-13T12:47:18.078Z,-4.00
2022-12-13T12:50:08.982Z,-4.00
2022-12-13T12:52:47.131Z,-4.20
2022-12-13T12:55:23.766Z,-4.10
2022-12-13T12:58:01.404Z,-4.30
2022-12-13T13:00:35.292Z,-4.40
2022-12-13T13:03:22.061Z,-4.30
2022-12-13T13:06:01.665Z,-4.20
2022-12-13T13:08:36.755Z,-4.30
2022-12-13T13:11:24.699Z,-4.30
2022-12-13T13:14:06.446Z,-4.50
2022-12-13T13:16:37.285Z,-4.40
2022-12-13T13:19:06.329Z,-4.30
2022-12-13T13:21:44.859Z,-4.20
2022-12-13T13:24:20.157Z,-4.10
2022-12-13T13:26:50.144Z,-4.10
2022-12-13T13:29:36.475Z,-4.30
2022-12-13T13:32:07.811Z,-4.30
2022-12-13T13:34:37.995Z,-4.10
2022-12-13T13:37:26.387Z,-4.40
2022-12-13T13:40:01.472Z,-4.20
2022-12-13T13:42:30.407Z,-4.20
2022-12-13T13:45:20.318Z,-4.20
2022-12-13T13:48:14.207Z,-4.10
2022-12-13T13:51:21.459Z,-4.10
2022-12-13T13:54:37.114Z,-4.10
2022-12-13T13:58:08.846Z,-4.00
2022-12-13T14:00:56.643Z,-3.90
2022-12-13T14:04:06.443Z,-3.80
2022-12-13T14:07:06.497Z,-4.10
2022-12-13T14:09:52.773Z,-4.10
2022-12-13T14:12:50.333Z,-4.20
2022-12-13T14:15:52.193Z,-4.30
2022-12-13T14:19:08.663Z,-4.30
2022-12-13T14:21:54.036Z,-4.20
2022-12-13T14:24:31.373Z,-4.20
2022-12-13T14:27:17.039Z,-4.30
2022-12-13T14:29:57.438Z,-4.50
2022-12-13T14:32:30.048Z,-4.50
2022-12-13T14:34:58.666Z,-4.40
2022-12-13T14:37:28.642Z,-4.30
2022-12-13T14:39:56.759Z,-4.30
2022-12-13T14:42:27.117Z,-4.20
2022-12-13T14:44:55.025Z,-4.40
2022-12-13T14:47:23.917Z,-4.50
2022-12-13T14:49:56.074Z,-4.60
2022-12-13T14:52:27.603Z,-4.60
2022-12-13T14:54:58.435Z,-4.60
2022-12-13T14:57:29.432Z,-4.70
2022-12-13T14:59:59.291Z,-4.80
2022-12-13T15:02:30.942Z,-4.70
2022-12-13T15:05:03.502Z,-4.80
2022-12-13T15:07:36.067Z,-4.90
2022-12-13T15:10:07.763Z,-4.90
2022-12-13T15:12:35.580Z,-4.80
2022-12-13T15:15:06.294Z,-4.80
2022-12-13T15:17:36.542Z,-4.80
2022-12-13T15:20:22.684Z,-4.90
2022-12-13T15:22:58.825Z,-4.90
2022-12-13T15:25:26.902Z,-4.80
2022-12-13T15:27:55.956Z,-4.80
2022-12-13T15:30:30.381Z,-4.70
2022-12-13T15:33:17.614Z,-4.80
2022-12-13T15:35:48.708Z,-4.90
2022-12-13T15:38:28.167Z,-4.90
2022-12-13T15:40:57.752Z,-4.90
2022-12-13T15:43:33.865Z,-4.90
2022-12-13T15:46:01.890Z,-4.90
2022-12-13T15:48:32.301Z,-5.00
2022-12-13T15:51:10.054Z,-4.90
2022-12-13T15:53:39.314Z,-4.90
2022-12-13T15:56:30.242Z,-4.80
2022-12-13T15:58:58.111Z,-4.90
2022-12-13T16:01:27.841Z,-4.80
2022-12-13T16:03:55.977Z,-4.80
2022-12-13T16:06:27.042Z,-4.90
2022-12-13T16:08:57.948Z,-4.90
2022-12-13T16:11:32.363Z,-4.90
2022-12-13T16:14:36.915Z,-4.90
2022-12-13T16:17:10.201Z,-4.80
2022-12-13T16:19:38.041Z,-4.90
2022-12-13T16:22:08.591Z,-4.80
2022-12-13T16:24:37.260Z,-4.80
2022-12-13T16:27:08.609Z,-4.80
2022-12-13T16:29:37.400Z,-4.90
2022-12-13T16:32:08.070Z,-4.80
2022-12-13T16:34:37.071Z,-4.90
2022-12-13T16:37:08.407Z,-4.90
2022-12-13T16:39:37.892Z,-4.90
2022-12-13T16:42:05.998Z,-4.90
2022-12-13T16:44:37.336Z,-4.90
2022-12-13T16:47:13.812Z,-4.90
2022-12-13T16:49:49.927Z,-4.90
2022-12-13T16:52:20.470Z,-4.90
2022-12-13T16:54:49.740Z,-4.80
2022-12-13T16:57:17.488Z,-5.10
2022-12-13T16:59:45.318Z,-5.00
2022-12-13T17:02:18.629Z,-4.90
2022-12-13T17:04:46.694Z,-4.90
2022-12-13T17:07:14.677Z,-4.80
2022-12-13T17:09:42.621Z,-4.90
2022-12-13T17:12:11.918Z,-5.00
2022-12-13T17:14:40.588Z,-4.90
2022-12-13T17:17:11.582Z,-5.00
2022-12-13T17:19:42.157Z,-5.00
2022-12-13T17:22:10.473Z,-5.00
2022-12-13T17:24:39.806Z,-4.90
2022-12-13T17:27:07.648Z,-4.90
2022-12-13T17:29:36.842Z,-5.00
2022-12-13T17:32:05.344Z,-5.00
2022-12-13T17:34:33.495Z,-5.10
2022-12-13T17:37:04.418Z,-5.00
2022-12-13T17:39:36.389Z,-5.10
2022-12-13T17:42:04.357Z,-5.10
2022-12-13T17:44:32.275Z,-5.00
2022-12-13T17:47:01.713Z,-5.00
2022-12-13T17:49:29.540Z,-5.00
2022-12-13T17:51:57.671Z,-5.00
2022-12-13T17:54:27.482Z,-5.00
2022-12-13T17:56:55.467Z,-5.10
2022-12-13T17:59:23.390Z,-5.00
2022-12-13T18:01:52.094Z,-5.10
2022-12-13T18:04:22.110Z,-5.10
2022-12-13T18:06:51.326Z,-5.20
2022-12-13T18:09:20.110Z,-5.10
2022-12-13T18:11:48.652Z,-5.20
2022-12-13T18:14:16.465Z,-5.10
2022-12-13T18:16:44.253Z,-5.10
2022-12-13T18:19:14.083Z,-5.10
2022-12-13T18:21:44.141Z,-5.00
2022-12-13T18:24:12.601Z,-5.10
2022-12-13T18:26:40.448Z,-5.10
2022-12-13T18:29:08.522Z,-5.00
2022-12-13T18:31:36.379Z,-5.10
2022-12-13T18:34:04.889Z,-5.20
2022-12-13T18:36:32.691Z,-5.20
2022-12-13T18:39:02.178Z,-5.20
2022-12-13T18:41:31.535Z,-5.30
2022-12-13T18:44:01.757Z,-5.30
2022-12-13T18:46:31.627Z,-5.20
2022-12-13T18:48:59.852Z,-5.30
2022-12-13T18:51:28.334Z,-5.30
2022-12-13T18:53:56.381Z,-5.20
2022-12-13T18:56:26.584Z,-5.20
2022-12-13T18:58:54.910Z,-5.20
2022-12-13T19:01:26.686Z,-5.20
2022-12-13T19:03:55.004Z,-5.20
2022-12-13T19:06:24.826Z,-5.00
2022-12-13T19:08:55.417Z,-5.00
2022-12-13T19:11:25.791Z,-5.10
2022-12-13T19:13:53.893Z,-5.10
2022-12-13T19:16:23.386Z,-5.20
2022-12-13T19:18:51.819Z,-5.10
2022-12-13T19:21:21.696Z,-5.00
2022-12-13T19:23:55.925Z,-4.90
2022-12-13T19:26:27.961Z,-4.90
2022-12-13T19:28:57.290Z,-4.90
2022-12-13T19:31:30.584Z,-4.90
2022-12-13T19:34:00.109Z,-4.90
2022-12-13T19:36:27.881Z,-4.80
2022-12-13T19:38:56.804Z,-4.90
2022-12-13T19:41:26.125Z,-5.00
2022-12-13T19:43:54.103Z,-4.90
2022-12-13T19:46:22.359Z,-5.00
2022-12-13T19:48:50.707Z,-5.00
2022-12-13T19:51:18.665Z,-4.90
2022-12-13T19:53:46.476Z,-4.90
2022-12-13T19:56:17.457Z,-4.90
2022-12-13T19:58:47.625Z,-4.90
2022-12-13T20:01:16.181Z,-5.00
2022-12-13T20:03:46.335Z,-4.90
2022-12-13T20:06:15.950Z,-5.00
2022-12-13T20:08:44.254Z,-4.90
2022-12-13T20:11:14.019Z,-4.90
2022-12-13T20:13:41.849Z,-4.90
2022-12-13T20:16:16.497Z,-4.90
2022-12-13T20:18:44.682Z,-4.80
2022-12-13T20:21:14.538Z,-5.00
2022-12-13T20:23:48.768Z,-4.90
2022-12-13T20:26:20.545Z,-5.00
2022-12-13T20:28:48.882Z,-5.00
2022-12-13T20:31:21.583Z,-4.90
2022-12-13T20:33:49.838Z,-4.90
2022-12-13T20:36:24.845Z,-4.90
2022-12-13T20:38:53.747Z,-4.90
2022-12-13T20:41:21.531Z,-4.90
2022-12-13T20:43:52.452Z,-4.90
2022-12-13T20:46:22.813Z,-4.90
2022-12-13T20:48:51.522Z,-5.00
2022-12-13T20:51:21.533Z,-5.10
2022-12-13T20:53:50.367Z,-5.10
2022-12-13T20:56:20.721Z,-5.10
2022-12-13T20:58:48.729Z,-5.10
2022-12-13T21:01:18.583Z,-5.00
2022-12-13T21:03:48.100Z,-5.00
2022-12-13T21:06:15.927Z,-5.00
2022-12-13T21:08:52.515Z,-5.00
2022-12-13T21:11:26.927Z,-5.10
2022-12-13T21:14:00.022Z,-5.00
2022-12-13T21:16:34.474Z,-5.00
2022-12-13T21:19:04.133Z,-4.90
2022-12-13T21:21:32.607Z,-4.90
2022-12-13T21:24:00.599Z,-4.90
2022-12-13T21:26:34.659Z,-5.00
2022-12-13T21:29:07.302Z,-5.00
2022-12-13T21:31:36.613Z,-5.10
2022-12-13T21:34:06.602Z,-5.10
2022-12-13T21:36:35.658Z,-5.10
2022-12-13T21:39:07.074Z,-5.00
2022-12-13T21:41:34.950Z,-5.00
2022-12-13T21:44:02.848Z,-4.90
2022-12-13T21:47:02.871Z,-4.90
2022-12-13T21:49:20.320Z,-4.80
2022-12-13T21:51:48.714Z,-4.90
2022-12-13T21:54:18.167Z,-4.90
2022-12-13T21:57:03.844Z,-4.80
2022-12-13T21:59:31.933Z,-4.70
2022-12-13T22:02:15.361Z,-4.80
2022-12-13T22:04:46.445Z,-4.80
2022-12-13T22:07:16.272Z,-4.90
2022-12-13T22:09:44.368Z,-4.80
2022-12-13T22:12:19.541Z,-4.70
2022-12-13T22:14:48.098Z,-4.80
2022-12-13T22:17:16.072Z,-4.80
2022-12-13T22:19:48.437Z,-4.80
2022-12-13T22:22:17.672Z,-4.70
2022-12-13T22:24:52.717Z,-4.80
2022-12-13T22:27:23.490Z,-4.70
2022-12-13T22:29:51.990Z,-4.70
2022-12-13T22:32:20.058Z,-4.70
2022-12-13T22:34:49.525Z,-4.80
2022-12-13T22:37:17.400Z,-4.70
2022-12-13T22:39:45.214Z,-4.80
2022-12-13T22:42:12.987Z,-4.80
2022-12-13T22:44:40.955Z,-4.80
2022-12-13T22:47:08.803Z,-4.80
2022-12-13T22:49:36.600Z,-4.90
2022-12-13T22:52:06.222Z,-4.80
2022-12-13T22:54:34.047Z,-4.70
2022-12-13T22:57:01.832Z,-4.60
2022-12-13T22:59:29.752Z,-4.60
2022-12-13T23:02:02.638Z,-4.60
2022-12-13T23:04:31.561Z,-4.60
2022-12-13T23:06:59.364Z,-4.60
2022-12-13T23:09:28.583Z,-4.50
2022-12-13T23:12:13.867Z,-4.50
2022-12-13T23:14:41.662Z,-4.50
2022-12-13T23:17:09.454Z,-4.50
2022-12-13T23:19:49.643Z,-4.50
2022-12-13T23:22:20.878Z,-4.50
2022-12-13T23:24:50.113Z,-4.60
2022-12-13T23:27:18.320Z,-4.50
2022-12-13T23:29:46.115Z,-4.40
2022-12-13T23:32:13.923Z,-4.40
2022-12-13T23:34:41.706Z,-4.40
2022-12-13T23:37:09.542Z,-4.40
2022-12-13T23:39:37.573Z,-4.40
2022-12-13T23:42:07.148Z,-4.50
2022-12-13T23:44:34.966Z,-4.50
2022-12-13T23:47:02.890Z,-4.40
2022-12-13T23:49:30.669Z,-4.30
2022-12-13T23:51:58.466Z,-4.30
2022-12-13T23:54:26.263Z,-4.30
2022-12-13T23:56:54.630Z,-4.30
2022-12-13T23:59:25.753Z,-4.30
